createdAt,value
2022-08-05T08:45:24.750Z,27.80
2022-08-05T08:45:31.114Z,27.92
2022-08-05T08:46:04.334Z,27.95
2022-08-05T08:47:34.590Z,27.99
2022-08-05T08:48:12.792Z,28.04
2022-08-05T08:50:05.774Z,27.97
2022-08-05T08:50:51.979Z,27.86
2022-08-05T08:52:01.852Z,27.77
2022-08-05T08:52:13.750Z,27.77
2022-08-05T08:53:08.108Z,27.67
2022-08-05T08:54:04.256Z,27.32
2022-08-05T08:55:04.252Z,27.41
2022-08-05T08:56:06.001Z,27.71
2022-08-05T08:57:04.210Z,27.87
2022-08-05T08:58:04.210Z,28.04
2022-08-05T08:59:09.757Z,28.17
2022-08-05T09:00:04.473Z,28.24
2022-08-05T09:01:04.310Z,28.26
2022-08-05T09:02:04.171Z,28.22
2022-08-05T09:03:04.159Z,27.95
2022-08-05T09:04:04.158Z,27.64
2022-08-05T09:05:17.883Z,27.36
2022-08-05T09:06:07.531Z,27.29
2022-08-05T09:07:04.139Z,27.27
2022-08-05T09:08:04.105Z,27.58
2022-08-05T09:09:04.110Z,27.51
2022-08-05T09:10:04.120Z,27.68
2022-08-05T09:11:04.130Z,27.93
2022-08-05T09:12:20.122Z,28.02
2022-08-05T09:13:04.846Z,27.90
2022-08-05T09:14:54.073Z,28.02
2022-08-05T09:15:05.798Z,28.35
2022-08-05T09:16:04.010Z,28.81
2022-08-05T09:17:04.042Z,28.98
2022-08-05T09:18:04.010Z,28.95
2022-08-05T09:19:06.750Z,28.60
2022-08-05T09:20:05.006Z,28.41
2022-08-05T09:21:03.967Z,28.36
2022-08-05T09:22:21.746Z,28.24
2022-08-05T09:23:05.515Z,27.86
2022-08-05T09:24:03.947Z,27.65
2022-08-05T09:25:24.100Z,27.83
2022-08-05T09:26:06.422Z,27.95
2022-08-05T09:27:03.913Z,27.71
2022-08-05T09:28:06.439Z,27.45
2022-08-05T09:29:03.866Z,27.60
2022-08-05T09:30:06.575Z,27.65
2022-08-05T09:31:22.593Z,27.52
2022-08-05T09:32:51.579Z,27.68
2022-08-05T09:33:04.758Z,27.83
2022-08-05T09:34:03.843Z,27.80
2022-08-05T09:35:03.811Z,27.75
2022-08-05T09:36:11.841Z,27.65
2022-08-05T09:37:03.820Z,27.52
2022-08-05T09:38:12.357Z,27.60
2022-08-05T09:39:03.811Z,27.82
2022-08-05T09:40:03.836Z,27.95
2022-08-05T09:41:03.732Z,28.07
2022-08-05T09:42:03.790Z,27.99
2022-08-05T09:43:03.719Z,27.97
2022-08-05T09:44:03.733Z,27.67
2022-08-05T09:46:05.070Z,27.90
2022-08-05T09:46:12.529Z,28.34
2022-08-05T09:47:03.684Z,28.27
2022-08-05T09:48:03.702Z,28.36
2022-08-05T09:49:08.190Z,28.27
2022-08-05T09:50:03.686Z,28.42
2022-08-05T09:51:03.635Z,28.42
2022-08-05T09:52:03.628Z,28.53
2022-08-05T09:53:03.600Z,28.58
2022-08-05T09:54:03.621Z,28.83
2022-08-05T09:55:55.029Z,28.82
2022-08-05T09:56:03.996Z,28.69
2022-08-05T09:57:03.567Z,28.75
2022-08-05T09:58:03.559Z,28.49
2022-08-05T09:59:04.221Z,28.64
2022-08-05T10:00:07.566Z,28.78
2022-08-05T10:01:15.421Z,28.98
2022-08-05T10:02:03.534Z,28.94
2022-08-05T10:03:03.595Z,29.11
2022-08-05T10:04:03.586Z,29.17
2022-08-05T10:05:03.483Z,29.19
2022-08-05T10:06:07.527Z,29.36
2022-08-05T10:07:14.152Z,29.63
2022-08-05T10:08:35.703Z,29.68
2022-08-05T10:09:03.436Z,29.79
2022-08-05T10:10:14.042Z,29.58
2022-08-05T10:11:03.403Z,29.44
2022-08-05T10:12:07.444Z,29.55
2022-08-05T10:13:03.691Z,29.83
2022-08-05T10:14:03.379Z,29.79
2022-08-05T10:15:03.429Z,29.85
